Semora, North Carolina
Current Conditions -  °F | °C
As of 11:53 PM on Wednesday 22 Oct 2014 (Local Time) from KDAN Reporting Station
Clear Clear  
Wind Chill: 52°   Ceiling: Unl
Heat Index: 52°   Visibility: 10mi
Dew Point: 40°   Wind: 7mph
Humidity: 63%   Direction: 310°NW
Pressure: 30.03"   Gusts: NA
Location:  36.5°N, 79.15°W
Report Text: KDAN 230353Z AUTO 31006KT 10SM CLR 11/04 A3003 RMK AO2 SLP161 T01110044
Loading
Personal Weather Stations






























Interactive Weather Map
Tropical Storm Tracking
New forecast layout! Learn more

10-Day Weather Forecast

Advertisements
Track Severe Weather on mobile